Time;durP1;ratioP1;P1;durP2;ratioP2;P2;SDS_P1;SDS_P2;PMS_P1;PMS_P2;Temp;Humidity;BMP_temperature;BMP_pressure;BME280_temperature;BME280_humidity;BME280_pressure;Samples;Min_cycle;Max_cycle;Signal;HPM_P1;HPM_P2
2022/03/11 00:00:07;;;;;;;11.25;6.60;;;3.10;69.70;;;;;;6278525;22;20035;-67
2022/03/11 00:02:50;;;;;;;14.00;7.32;;;3.10;69.90;;;;;;6278858;22;20000;-64
2022/03/11 00:05:17;;;;;;;14.63;6.82;;;3.00;70.10;;;;;;6277579;22;20089;-67
2022/03/11 00:07:46;;;;;;;12.35;7.43;;;2.90;70.50;;;;;;6277697;22;20007;-65
2022/03/11 00:10:11;;;;;;;11.90;6.28;;;2.90;70.70;;;;;;6276921;22;20070;-65
2022/03/11 00:12:37;;;;;;;12.98;7.40;;;2.90;70.90;;;;;;6278743;22;20095;-64
2022/03/11 00:15:05;;;;;;;11.40;7.00;;;2.80;71.40;;;;;;6277999;22;20090;-64
2022/03/11 00:17:31;;;;;;;18.10;7.90;;;2.80;71.70;;;;;;6279130;22;20243;-65
2022/03/11 00:19:56;;;;;;;13.73;7.68;;;2.80;71.70;;;;;;6278572;22;20000;-65
2022/03/11 00:22:22;;;;;;;13.02;7.30;;;2.90;71.70;;;;;;6278623;22;20000;-65
2022/03/11 00:24:50;;;;;;;15.95;7.63;;;2.90;71.50;;;;;;6276327;22;20075;-64
2022/03/11 00:27:16;;;;;;;12.80;7.10;;;2.80;71.90;;;;;;6278977;22;19999;-64
2022/03/11 00:29:41;;;;;;;13.23;7.57;;;2.80;72.30;;;;;;6278633;22;20068;-63
2022/03/11 00:32:09;;;;;;;16.58;8.38;;;2.70;72.50;;;;;;6279060;22;19996;-64
2022/03/11 00:34:35;;;;;;;13.50;7.93;;;2.70;72.90;;;;;;6278590;22;20388;-64
2022/03/11 00:37:01;;;;;;;14.10;7.70;;;2.70;73.00;;;;;;6278748;22;20004;-64
2022/03/11 00:39:27;;;;;;;18.80;9.20;;;2.60;73.20;;;;;;6276693;22;20261;-62
2022/03/11 00:41:53;;;;;;;14.80;8.27;;;2.50;73.70;;;;;;6278107;22;20078;-63
2022/03/11 00:44:23;;;;;;;12.68;7.68;;;2.50;73.70;;;;;;6278107;22;20399;-64
2022/03/11 00:46:49;;;;;;;15.32;8.85;;;2.40;74.10;;;;;;6277945;22;20007;-63
2022/03/11 00:49:15;;;;;;;20.48;10.02;;;2.50;74.30;;;;;;6277833;22;20358;-64
2022/03/11 00:51:41;;;;;;;15.80;8.90;;;2.40;74.50;;;;;;6278187;22;20027;-64
2022/03/11 00:54:08;;;;;;;16.13;9.27;;;2.40;74.50;;;;;;6276711;22;20003;-62
2022/03/11 00:56:36;;;;;;;16.33;9.25;;;2.30;74.90;;;;;;6277521;22;20109;-64
2022/03/11 00:59:02;;;;;;;14.65;9.15;;;2.30;75.20;;;;;;6277835;22;19995;-64
2022/03/11 01:01:28;;;;;;;16.67;9.23;;;2.20;75.70;;;;;;6250605;22;20026;-65
2022/03/11 01:03:53;;;;;;;17.25;10.18;;;2.10;76.10;;;;;;6277199;22;20007;-66
2022/03/11 01:06:19;;;;;;;15.57;9.20;;;2.10;76.20;;;;;;6277006;22;20019;-65
2022/03/11 01:08:44;;;;;;;16.83;9.95;;;2.10;76.20;;;;;;6275368;22;20066;-64
2022/03/11 01:11:11;;;;;;;17.45;9.45;;;2.20;76.20;;;;;;6279087;22;20011;-65
2022/03/11 01:13:40;;;;;;;16.95;9.13;;;2.20;76.40;;;;;;6279086;22;20027;-65
2022/03/11 01:16:06;;;;;;;16.42;10.27;;;2.20;76.50;;;;;;6279018;22;20008;-65
2022/03/11 01:18:32;;;;;;;21.17;9.80;;;2.20;76.70;;;;;;6277415;22;20189;-65
2022/03/11 01:20:58;;;;;;;18.30;9.93;;;2.20;76.60;;;;;;6278333;22;20306;-65
2022/03/11 01:23:24;;;;;;;18.35;10.38;;;2.20;76.60;;;;;;6278879;22;20053;-66
2022/03/11 01:25:49;;;;;;;17.45;9.82;;;2.10;77.00;;;;;;6277220;22;20046;-66
2022/03/11 01:28:15;;;;;;;19.50;10.35;;;2.00;77.40;;;;;;6278969;22;20004;-65
2022/03/11 01:30:41;;;;;;;22.88;11.32;;;1.90;77.80;;;;;;6278669;22;20000;-64
2022/03/11 01:33:07;;;;;;;19.98;11.43;;;1.90;78.00;;;;;;6278398;22;20003;-66
2022/03/11 01:35:33;;;;;;;21.13;11.60;;;1.90;78.20;;;;;;6278749;22;20011;-65
2022/03/11 01:37:59;;;;;;;19.02;11.00;;;1.90;78.40;;;;;;6278932;22;20399;-66
2022/03/11 01:40:25;;;;;;;17.85;10.88;;;1.90;78.50;;;;;;6277437;22;20004;-66
2022/03/11 01:42:53;;;;;;;23.38;10.95;;;1.90;78.70;;;;;;6279420;22;20038;-66
2022/03/11 01:45:22;;;;;;;23.60;12.00;;;1.90;78.80;;;;;;6278900;22;20239;-66
2022/03/11 01:47:47;;;;;;;18.65;11.05;;;2.00;78.80;;;;;;6278681;22;19995;-66
2022/03/11 01:50:13;;;;;;;24.60;12.23;;;2.00;78.90;;;;;;6278401;22;20007;-66
2022/03/11 01:52:42;;;;;;;21.45;12.02;;;2.00;79.20;;;;;;6278646;22;20006;-64
2022/03/11 01:55:11;;;;;;;21.38;12.02;;;1.90;79.40;;;;;;6275785;22;20269;-64
2022/03/11 01:57:37;;;;;;;22.15;13.65;;;1.80;79.70;;;;;;6278874;22;20004;-64
2022/03/11 02:00:08;;;;;;;23.63;12.82;;;1.80;80.00;;;;;;6278832;22;20011;-64
2022/03/11 02:02:34;;;;;;;23.55;13.23;;;1.80;80.30;;;;;;6278243;22;20366;-63
2022/03/11 02:05:00;;;;;;;25.65;13.63;;;1.80;80.30;;;;;;6278183;22;20011;-66
2022/03/11 02:07:29;;;;;;;27.92;13.23;;;1.80;80.30;;;;;;6278398;22;20039;-66
2022/03/11 02:09:55;;;;;;;26.98;14.82;;;1.80;80.40;;;;;;6276399;22;20003;-66
2022/03/11 02:12:36;;;;;;;23.90;13.30;;;1.80;80.40;;;;;;6278585;22;20149;-66
2022/03/11 02:15:04;;;;;;;20.80;12.90;;;1.80;80.50;;;;;;6278807;22;20007;-65
2022/03/11 02:17:30;;;;;;;26.17;14.00;;;1.70;80.80;;;;;;6277825;22;20003;-66
2022/03/11 02:19:56;;;;;;;24.63;13.98;;;1.70;81.10;;;;;;6278110;22;20083;-65
2022/03/11 02:22:25;;;;;;;24.42;13.98;;;1.60;81.40;;;;;;6278487;22;20400;-66
2022/03/11 02:24:52;;;;;;;24.58;14.70;;;1.60;81.60;;;;;;6276594;22;20007;-65
2022/03/11 02:27:21;;;;;;;24.65;15.20;;;1.50;82.00;;;;;;6278967;22;20305;-65
2022/03/11 02:29:47;;;;;;;26.58;15.52;;;1.50;82.30;;;;;;6279249;22;19996;-66
2022/03/11 02:32:12;;;;;;;27.40;15.30;;;1.50;82.40;;;;;;6278533;22;20390;-65
2022/03/11 02:34:38;;;;;;;27.08;14.52;;;1.50;82.50;;;;;;6279061;22;19996;-65
2022/03/11 02:37:09;;;;;;;28.23;15.13;;;1.50;82.60;;;;;;6279394;22;20007;-66
2022/03/11 02:39:35;;;;;;;27.25;15.80;;;1.40;82.90;;;;;;6277515;22;20007;-65
2022/03/11 02:42:03;;;;;;;28.58;16.75;;;1.40;83.10;;;;;;6279460;22;20014;-66
2022/03/11 02:44:31;;;;;;;30.15;16.48;;;1.40;83.20;;;;;;6278483;22;20007;-66
2022/03/11 02:46:59;;;;;;;27.73;16.67;;;1.40;83.40;;;;;;6279013;22;20000;-66
2022/03/11 02:49:26;;;;;;;28.95;16.67;;;1.30;83.70;;;;;;6278878;22;20022;-66
2022/03/11 02:51:53;;;;;;;29.55;15.98;;;1.30;84.00;;;;;;6277778;22;20000;-66
2022/03/11 02:54:21;;;;;;;27.67;17.15;;;1.20;84.10;;;;;;6277137;22;20010;-66
2022/03/11 02:56:49;;;;;;;30.35;17.58;;;1.20;84.50;;;;;;6278730;22;20298;-64
2022/03/11 02:59:14;;;;;;;30.85;18.17;;;1.20;84.60;;;;;;6278839;22;20006;-65
2022/03/11 03:01:40;;;;;;;30.38;18.38;;;1.10;84.70;;;;;;6278757;22;20007;-65
2022/03/11 03:04:06;;;;;;;32.85;18.38;;;1.10;84.80;;;;;;6277980;22;20308;-65
2022/03/11 03:06:32;;;;;;;28.75;17.80;;;1.10;85.00;;;;;;6277387;22;20008;-67
2022/03/11 03:08:57;;;;;;;31.45;18.42;;;1.10;85.30;;;;;;6276663;22;20000;-66
2022/03/11 03:11:25;;;;;;;33.90;18.83;;;1.00;85.40;;;;;;6277963;22;20080;-65
2022/03/11 03:13:54;;;;;;;29.85;18.42;;;1.10;85.60;;;;;;6279012;22;20545;-65
2022/03/11 03:16:19;;;;;;;34.10;19.83;;;1.00;85.70;;;;;;6278727;22;20010;-65
2022/03/11 03:18:45;;;;;;;33.92;20.77;;;0.90;85.90;;;;;;6279039;22;20012;-66
2022/03/11 03:21:10;;;;;;;32.67;19.45;;;0.90;86.30;;;;;;6278819;22;20432;-64
2022/03/11 03:23:36;;;;;;;36.75;21.35;;;0.80;86.30;;;;;;6278107;22;20014;-63
2022/03/11 03:26:02;;;;;;;37.83;21.58;;;0.70;86.70;;;;;;6277509;22;20002;-65
2022/03/11 03:28:27;;;;;;;36.70;20.10;;;0.60;87.00;;;;;;6277725;22;19999;-66
2022/03/11 03:30:53;;;;;;;37.88;21.15;;;0.60;87.30;;;;;;6277190;22;20076;-65
2022/03/11 03:33:19;;;;;;;32.40;19.80;;;0.70;87.30;;;;;;6277847;22;20010;-66
2022/03/11 03:35:44;;;;;;;37.38;20.65;;;0.70;87.30;;;;;;6277809;22;20011;-65
2022/03/11 03:38:13;;;;;;;36.15;20.77;;;0.60;87.60;;;;;;6278288;22;20086;-65
2022/03/11 03:40:39;;;;;;;37.85;20.65;;;0.60;87.70;;;;;;6276623;22;20003;-62
2022/03/11 03:43:05;;;;;;;36.33;20.50;;;0.70;87.60;;;;;;6277588;22;20075;-65
2022/03/11 03:45:31;;;;;;;40.85;22.60;;;0.70;87.50;;;;;;6277247;22;20028;-65
2022/03/11 03:47:58;;;;;;;37.75;22.25;;;0.70;87.40;;;;;;6279070;22;20057;-66
2022/03/11 03:50:27;;;;;;;35.75;22.63;;;0.70;87.60;;;;;;6278842;22;20000;-65
2022/03/11 03:52:53;;;;;;;44.42;24.65;;;0.60;87.60;;;;;;6277667;22;20007;-65
2022/03/11 03:55:19;;;;;;;41.40;25.90;;;0.60;87.70;;;;;;6277021;22;20022;-66
2022/03/11 03:57:44;;;;;;;41.95;23.35;;;0.60;88.00;;;;;;6277199;22;20421;-66
2022/03/11 04:00:11;;;;;;;44.83;25.50;;;0.50;88.00;;;;;;6277678;22;20067;-65
2022/03/11 04:02:37;;;;;;;42.80;25.45;;;0.50;88.00;;;;;;6277833;22;19995;-66
2022/03/11 04:05:06;;;;;;;37.95;23.50;;;0.40;88.10;;;;;;6277060;22;20008;-66
2022/03/11 04:07:32;;;;;;;40.75;22.98;;;0.40;88.20;;;;;;6277111;22;20016;-66
2022/03/11 04:09:57;;;;;;;35.47;21.60;;;0.30;88.30;;;;;;6275486;22;20261;-66
2022/03/11 04:12:23;;;;;;;40.28;22.88;;;0.30;88.40;;;;;;6278240;22;20038;-66
2022/03/11 04:14:48;;;;;;;81.82;51.20;;;0.30;88.50;;;;;;6277322;22;20035;-66
2022/03/11 04:17:17;;;;;;;53.22;32.00;;;0.20;88.80;;;;;;6277565;22;20053;-66
2022/03/11 04:19:42;;;;;;;44.80;25.15;;;0.20;88.90;;;;;;6277450;22;20704;-66
2022/03/11 04:22:08;;;;;;;40.38;23.45;;;0.10;89.10;;;;;;6277382;22;20007;-66
2022/03/11 04:24:37;;;;;;;40.00;23.70;;;0.10;89.20;;;;;;6275180;22;20004;-66
2022/03/11 04:27:03;;;;;;;39.60;23.00;;;0.10;89.20;;;;;;6277495;22;20003;-66
2022/03/11 04:29:28;;;;;;;44.25;23.85;;;0.10;89.20;;;;;;6276942;22;20428;-66
2022/03/11 04:31:55;;;;;;;40.67;23.23;;;0.10;89.10;;;;;;6277786;22;20238;-66
2022/03/11 04:34:21;;;;;;;39.20;23.00;;;0.10;89.20;;;;;;6277483;22;20075;-66
2022/03/11 04:36:46;;;;;;;40.13;23.17;;;0.10;89.20;;;;;;6277846;22;20003;-63
2022/03/11 04:39:12;;;;;;;44.20;24.90;;;0.00;89.10;;;;;;6275727;22;20046;-66
2022/03/11 04:41:38;;;;;;;39.80;22.73;;;0.00;89.30;;;;;;6278027;22;20010;-66
2022/03/11 04:44:04;;;;;;;42.15;23.55;;;0.00;89.40;;;;;;6278723;22;20007;-65
2022/03/11 04:46:32;;;;;;;40.13;23.05;;;0.00;89.30;;;;;;6280170;22;20029;-66
2022/03/11 04:48:58;;;;;;;39.83;24.80;;;-0.10;89.50;;;;;;6280034;22;20004;-63
2022/03/11 04:51:25;;;;;;;37.22;21.70;;;-0.10;89.70;;;;;;6279764;22;20071;-64
2022/03/11 04:53:50;;;;;;;39.00;22.85;;;0.00;89.30;;;;;;6277795;22;20036;-63
2022/03/11 04:56:17;;;;;;;43.42;23.48;;;-0.10;89.40;;;;;;6279648;22;20004;-63
2022/03/11 04:58:42;;;;;;;43.83;24.52;;;-0.10;89.30;;;;;;6279917;22;20011;-63
2022/03/11 05:01:08;;;;;;;42.22;23.42;;;-0.10;89.20;;;;;;6279609;22;20369;-66
2022/03/11 05:03:34;;;;;;;48.30;25.02;;;-0.10;89.10;;;;;;6279203;22;20011;-65
2022/03/11 05:06:00;;;;;;;46.63;24.20;;;-0.10;89.10;;;;;;6278408;22;20030;-65
2022/03/11 05:08:26;;;;;;;41.47;24.17;;;-0.10;89.10;;;;;;6279310;22;20261;-64
2022/03/11 05:10:51;;;;;;;45.42;24.48;;;-0.10;89.20;;;;;;6277453;22;19996;-66
2022/03/11 05:13:23;;;;;;;40.25;24.23;;;-0.10;89.00;;;;;;6278830;22;20320;-65
2022/03/11 05:15:48;;;;;;;42.90;23.20;;;-0.10;89.00;;;;;;6277936;22;20269;-65
2022/03/11 05:18:17;;;;;;;41.70;24.08;;;-0.20;89.10;;;;;;6279035;22;20015;-64
2022/03/11 05:20:43;;;;;;;40.45;23.80;;;-0.20;89.10;;;;;;6279734;22;20003;-65
2022/03/11 05:23:08;;;;;;;41.30;23.73;;;-0.20;89.00;;;;;;6278127;22;20053;-66
2022/03/11 05:25:34;;;;;;;39.17;23.58;;;-0.20;89.20;;;;;;6277433;22;20003;-65
2022/03/11 05:28:00;;;;;;;40.85;23.13;;;-0.30;89.10;;;;;;6278857;22;19995;-64
2022/03/11 05:30:26;;;;;;;45.72;24.40;;;-0.20;88.90;;;;;;6279003;22;20377;-66
2022/03/11 05:32:51;;;;;;;41.03;23.80;;;-0.30;89.00;;;;;;6279484;22;19996;-66
2022/03/11 05:35:19;;;;;;;37.90;23.35;;;-0.30;89.00;;;;;;6278118;22;20006;-66
2022/03/11 05:37:46;;;;;;;44.40;24.90;;;-0.40;89.00;;;;;;6278549;22;20007;-65
2022/03/11 05:40:12;;;;;;;42.03;23.48;;;-0.40;89.10;;;;;;6277419;22;20096;-64
2022/03/11 05:42:38;;;;;;;43.10;23.45;;;-0.30;89.00;;;;;;6278344;22;20049;-65
2022/03/11 05:45:04;;;;;;;42.45;23.13;;;-0.40;88.90;;;;;;6278807;22;20008;-65
2022/03/11 05:47:30;;;;;;;42.25;22.58;;;-0.40;89.00;;;;;;6278595;22;19999;-65
2022/03/11 05:49:59;;;;;;;40.92;22.67;;;-0.40;88.60;;;;;;6279420;22;20374;-65
2022/03/11 05:52:25;;;;;;;36.67;21.90;;;-0.30;88.30;;;;;;6278960;22;20373;-64
2022/03/11 05:54:51;;;;;;;39.30;22.70;;;-0.40;88.20;;;;;;6276848;22;20004;-65
2022/03/11 05:57:20;;;;;;;40.53;22.00;;;-0.40;88.20;;;;;;6277475;22;20067;-63
2022/03/11 05:59:45;;;;;;;40.50;22.38;;;-0.40;88.10;;;;;;6278836;22;20004;-66
2022/03/11 06:02:11;;;;;;;36.90;20.42;;;-0.40;88.00;;;;;;6277826;22;20396;-65
2022/03/11 06:04:37;;;;;;;40.78;21.92;;;-0.40;87.70;;;;;;6278700;22;20426;-65
2022/03/11 06:07:04;;;;;;;38.15;21.73;;;-0.50;87.90;;;;;;6277977;22;20011;-65
2022/03/11 06:09:30;;;;;;;39.13;21.45;;;-0.40;87.70;;;;;;6277209;22;20728;-66
2022/03/11 06:11:56;;;;;;;38.95;19.90;;;-0.40;87.40;;;;;;6278064;22;20027;-66
2022/03/11 06:14:22;;;;;;;36.80;20.38;;;-0.40;87.50;;;;;;6278875;22;20031;-64
2022/03/11 06:16:48;;;;;;;40.78;22.17;;;-0.30;87.30;;;;;;6278262;22;20030;-65
2022/03/11 06:19:16;;;;;;;34.42;20.40;;;-0.30;86.90;;;;;;6278029;22;20007;-65
2022/03/11 06:21:42;;;;;;;33.35;19.48;;;-0.30;86.70;;;;;;6278326;22;20007;-65
2022/03/11 06:24:07;;;;;;;37.15;19.90;;;-0.30;86.60;;;;;;6277898;22;20011;-66
2022/03/11 06:26:33;;;;;;;34.80;19.85;;;-0.30;86.40;;;;;;6279980;22;20030;-65
2022/03/11 06:28:59;;;;;;;35.05;20.55;;;-0.10;85.70;;;;;;6278609;22;20353;-65
2022/03/11 06:31:25;;;;;;;31.75;18.65;;;0.00;85.20;;;;;;6279964;22;20091;-67
2022/03/11 06:33:54;;;;;;;33.97;18.50;;;0.00;85.00;;;;;;6279437;22;20266;-65
2022/03/11 06:36:20;;;;;;;33.88;20.08;;;0.00;84.80;;;;;;6279083;22;20079;-65
2022/03/11 06:38:46;;;;;;;33.45;19.27;;;0.00;84.60;;;;;;6277567;22;20030;-65
2022/03/11 06:41:12;;;;;;;36.95;21.38;;;0.20;84.40;;;;;;6279740;22;20000;-65
2022/03/11 06:43:38;;;;;;;29.98;18.25;;;0.20;84.10;;;;;;6279235;22;20023;-66
2022/03/11 06:46:03;;;;;;;34.08;19.40;;;0.30;84.10;;;;;;6278489;22;20000;-63
2022/03/11 06:48:29;;;;;;;32.35;17.75;;;0.30;83.70;;;;;;6279189;22;20022;-66
2022/03/11 06:50:55;;;;;;;34.15;17.75;;;0.40;83.30;;;;;;6280056;22;20286;-65
2022/03/11 06:53:25;;;;;;;35.30;19.00;;;0.40;83.10;;;;;;6279923;22;20003;-64
2022/03/11 06:55:52;;;;;;;35.30;18.52;;;0.50;82.70;;;;;;6278229;22;20042;-65
2022/03/11 06:58:18;;;;;;;32.20;17.65;;;0.60;82.40;;;;;;6279741;22;20053;-66
2022/03/11 07:00:47;;;;;;;30.08;17.58;;;0.70;82.30;;;;;;6280083;22;20074;-65
2022/03/11 07:03:12;;;;;;;33.25;17.90;;;0.90;82.00;;;;;;6280102;22;20370;-65
2022/03/11 07:05:38;;;;;;;30.60;17.00;;;1.00;81.60;;;;;;6279602;22;20007;-66
2022/03/11 07:08:04;;;;;;;29.50;16.33;;;1.10;81.30;;;;;;6278267;22;20000;-65
2022/03/11 07:10:29;;;;;;;34.47;16.40;;;1.20;81.10;;;;;;6278413;22;20239;-65
2022/03/11 07:12:58;;;;;;;29.95;17.90;;;1.40;80.40;;;;;;6280048;22;20091;-65
2022/03/11 07:15:24;;;;;;;30.83;16.27;;;1.50;80.20;;;;;;6280159;22;20415;-66
2022/03/11 07:17:50;;;;;;;30.73;16.50;;;1.60;79.60;;;;;;6279671;22;20004;-65
2022/03/11 07:20:15;;;;;;;30.67;17.00;;;1.80;79.40;;;;;;6279928;22;20030;-64
2022/03/11 07:22:43;;;;;;;26.98;15.98;;;2.00;78.90;;;;;;6280221;22;20354;-66
2022/03/11 07:25:09;;;;;;;28.88;16.73;;;2.10;78.40;;;;;;6278463;22;20266;-64
2022/03/11 07:27:34;;;;;;;27.02;16.00;;;2.20;78.00;;;;;;6279162;22;20002;-65
2022/03/11 07:30:00;;;;;;;29.65;16.27;;;2.40;77.80;;;;;;6279184;22;20000;-66
2022/03/11 07:32:31;;;;;;;27.40;15.65;;;2.50;77.30;;;;;;6279803;22;20313;-65
2022/03/11 07:34:57;;;;;;;27.23;15.10;;;2.60;76.60;;;;;;6277473;22;20007;-64
2022/03/11 07:37:22;;;;;;;25.38;15.18;;;2.80;76.10;;;;;;6277325;22;20073;-66
2022/03/11 07:39:48;;;;;;;25.83;14.65;;;2.90;76.30;;;;;;6275794;22;20008;-66
2022/03/11 07:42:14;;;;;;;26.45;15.43;;;3.00;76.00;;;;;;6278065;22;20030;-64
2022/03/11 07:44:44;;;;;;;25.80;15.20;;;3.10;76.10;;;;;;6277390;22;20003;-64
2022/03/11 07:47:09;;;;;;;25.15;14.70;;;3.10;75.80;;;;;;6277930;22;20007;-63
2022/03/11 07:49:35;;;;;;;27.30;15.32;;;3.30;75.80;;;;;;6279243;22;20000;-63
2022/03/11 07:52:02;;;;;;;26.48;15.23;;;3.40;74.90;;;;;;6277145;22;20067;-64
2022/03/11 07:54:28;;;;;;;29.38;17.42;;;3.40;75.20;;;;;;6275380;22;20087;-66
2022/03/11 07:56:59;;;;;;;29.40;18.52;;;3.60;75.00;;;;;;6276700;22;20437;-66
2022/03/11 07:59:28;;;;;;;28.30;18.58;;;3.60;75.80;;;;;;6276752;22;20008;-65
2022/03/11 08:01:54;;;;;;;29.83;19.27;;;3.60;76.10;;;;;;6277266;22;20273;-65
2022/03/11 08:04:19;;;;;;;31.00;17.77;;;3.70;75.90;;;;;;6275181;22;20082;-66
2022/03/11 08:06:45;;;;;;;25.83;17.15;;;3.80;76.10;;;;;;6275044;22;20107;-65
2022/03/11 08:09:11;;;;;;;29.83;17.80;;;3.90;75.40;;;;;;6275495;22;20008;-64
2022/03/11 08:11:37;;;;;;;29.48;18.30;;;4.00;75.00;;;;;;6277039;22;19996;-65
2022/03/11 08:14:02;;;;;;;29.42;18.00;;;4.10;74.90;;;;;;6276638;22;20004;-65
2022/03/11 08:16:28;;;;;;;29.35;17.50;;;4.20;74.20;;;;;;6276882;22;20004;-66
2022/03/11 08:18:54;;;;;;;26.40;15.88;;;4.30;73.70;;;;;;6278317;22;20014;-65
2022/03/11 08:21:20;;;;;;;29.40;16.63;;;4.30;73.60;;;;;;6278431;22;20038;-66
2022/03/11 08:23:45;;;;;;;29.73;15.93;;;4.60;73.10;;;;;;6278014;22;20015;-65
2022/03/11 08:26:15;;;;;;;26.77;16.23;;;5.10;73.00;;;;;;6281331;22;19996;-66
2022/03/11 08:28:41;;;;;;;26.02;15.77;;;6.00;72.00;;;;;;6280735;22;20366;-64
2022/03/11 08:31:07;;;;;;;24.17;14.10;;;7.60;67.40;;;;;;6279137;22;19999;-65
2022/03/11 08:33:36;;;;;;;25.90;13.48;;;8.50;64.10;;;;;;6279309;22;20007;-67
2022/03/11 08:36:01;;;;;;;22.02;13.45;;;9.20;62.70;;;;;;6279530;22;20006;-65
2022/03/11 08:38:30;;;;;;;21.20;12.65;;;10.20;60.70;;;;;;6279752;22;20074;-67
2022/03/11 08:40:55;;;;;;;19.90;12.77;;;11.00;58.80;;;;;;6278430;22;20324;-66
2022/03/11 08:43:22;;;;;;;19.67;12.32;;;11.70;56.50;;;;;;6280871;22;20007;-65
2022/03/11 08:45:48;;;;;;;19.27;12.77;;;11.70;56.50;;;;;;6281112;22;20007;-66
2022/03/11 08:48:13;;;;;;;19.85;11.68;;;12.20;56.30;;;;;;6280971;22;20375;-65
2022/03/11 08:50:39;;;;;;;18.55;11.57;;;13.50;54.50;;;;;;6281063;22;20000;-66
2022/03/11 08:53:05;;;;;;;20.00;12.38;;;14.00;53.00;;;;;;6281456;22;20265;-66
2022/03/11 08:55:33;;;;;;;16.42;10.95;;;14.50;51.20;;;;;;6279429;22;20030;-66
2022/03/11 08:57:58;;;;;;;18.05;11.43;;;14.80;50.60;;;;;;6280767;22;20006;-65
2022/03/11 09:00:25;;;;;;;17.40;11.27;;;14.50;50.60;;;;;;6280022;22;20028;-66
2022/03/11 09:02:50;;;;;;;22.15;12.50;;;14.80;50.00;;;;;;6281246;22;20035;-65
2022/03/11 09:05:18;;;;;;;18.48;10.88;;;14.00;51.30;;;;;;6280594;22;20000;-65
2022/03/11 09:07:45;;;;;;;18.52;11.88;;;14.80;51.20;;;;;;6280715;22;20008;-66
2022/03/11 09:10:13;;;;;;;16.95;11.15;;;16.10;49.20;;;;;;6279869;22;20003;-64
2022/03/11 09:12:40;;;;;;;22.10;14.63;;;15.30;49.50;;;;;;6280625;22;20000;-66
2022/03/11 09:15:07;;;;;;;21.95;14.80;;;14.90;50.20;;;;;;6281383;22;20003;-64
2022/03/11 09:17:35;;;;;;;23.38;14.02;;;14.60;50.70;;;;;;6280961;22;20261;-66
2022/03/11 09:20:06;;;;;;;19.83;12.85;;;14.80;51.00;;;;;;6280149;22;20008;-66
2022/03/11 09:22:32;;;;;;;20.45;12.25;;;15.20;49.80;;;;;;6281537;22;20036;-65
2022/03/11 09:24:58;;;;;;;21.48;13.13;;;15.20;49.40;;;;;;6279663;22;20014;-65
2022/03/11 09:27:24;;;;;;;21.25;13.85;;;15.50;50.10;;;;;;6281463;22;20358;-66
2022/03/11 09:29:51;;;;;;;21.45;14.30;;;15.00;49.70;;;;;;6280587;22;19996;-65
2022/03/11 09:32:16;;;;;;;22.73;14.48;;;14.90;50.80;;;;;;6281117;22;20030;-65
2022/03/11 09:34:43;;;;;;;22.02;13.55;;;15.70;50.50;;;;;;6281148;22;20008;-65
2022/03/11 09:37:10;;;;;;;25.10;14.70;;;16.20;49.30;;;;;;6280997;22;20004;-66
2022/03/11 09:39:36;;;;;;;21.92;14.90;;;16.40;48.60;;;;;;6278167;22;20078;-65
2022/03/11 09:42:06;;;;;;;27.15;16.05;;;15.50;49.40;;;;;;6280353;22;20079;-66
2022/03/11 09:44:32;;;;;;;22.35;14.18;;;14.50;51.00;;;;;;6280291;22;20056;-66
2022/03/11 09:46:59;;;;;;;22.90;15.50;;;14.60;52.10;;;;;;6281041;22;20000;-66
2022/03/11 09:49:24;;;;;;;22.48;14.15;;;14.70;52.80;;;;;;6281381;22;20242;-65
2022/03/11 09:51:50;;;;;;;20.42;14.65;;;15.40;51.30;;;;;;6280867;22;19999;-65
2022/03/11 09:54:16;;;;;;;20.98;14.30;;;15.60;50.40;;;;;;6277622;22;20035;-66
2022/03/11 09:56:45;;;;;;;23.00;13.82;;;15.50;50.90;;;;;;6279620;22;20000;-66
2022/03/11 09:59:12;;;;;;;22.15;15.45;;;15.60;51.00;;;;;;6279380;22;20057;-66
2022/03/11 10:01:42;;;;;;;22.52;14.18;;;15.50;49.90;;;;;;6279680;22;20059;-66
2022/03/11 10:04:08;;;;;;;19.00;13.35;;;15.30;50.70;;;;;;6279472;22;20027;-66
2022/03/11 10:06:44;;;;;;;22.15;14.65;;;14.90;51.70;;;;;;6280675;22;20016;-67
2022/03/11 10:09:32;;;;;;;18.80;13.35;;;14.80;51.40;;;;;;6278581;22;20007;-66
2022/03/11 10:12:00;;;;;;;21.88;13.18;;;15.00;51.70;;;;;;6280836;22;20003;-65
2022/03/11 10:14:35;;;;;;;22.08;14.65;;;14.90;52.00;;;;;;6281167;22;20308;-65
2022/03/11 10:17:17;;;;;;;22.25;13.93;;;14.90;51.60;;;;;;6280502;22;20004;-66
2022/03/11 10:20:04;;;;;;;21.20;13.55;;;14.90;51.70;;;;;;6279819;22;20272;-64
2022/03/11 10:22:33;;;;;;;21.50;13.52;;;15.20;50.60;;;;;;6280877;22;20007;-65
2022/03/11 10:25:16;;;;;;;22.95;13.15;;;15.50;50.60;;;;;;6279084;22;20329;-64
2022/03/11 10:28:10;;;;;;;19.50;12.85;;;15.40;50.40;;;;;;6280338;22;20004;-64
2022/03/11 10:30:38;;;;;;;19.83;12.93;;;15.80;49.70;;;;;;6280600;22;20000;-63
2022/03/11 10:33:14;;;;;;;25.90;13.13;;;15.90;49.60;;;;;;6280814;22;20388;-63
2022/03/11 10:35:47;;;;;;;20.77;12.18;;;16.00;49.30;;;;;;6280656;22;19996;-64
2022/03/11 10:38:16;;;;;;;20.05;12.85;;;16.00;49.50;;;;;;6280762;22;20031;-65
2022/03/11 10:40:50;;;;;;;16.95;11.98;;;16.80;48.70;;;;;;6279179;22;20007;-63
2022/03/11 10:43:22;;;;;;;19.45;12.40;;;17.20;47.80;;;;;;6280489;22;20431;-63
2022/03/11 10:45:52;;;;;;;20.75;12.50;;;16.90;47.90;;;;;;6279107;22;19999;-63
2022/03/11 10:48:39;;;;;;;22.08;13.43;;;17.20;49.40;;;;;;6280882;22;20003;-64
2022/03/11 10:51:24;;;;;;;20.08;12.18;;;17.50;46.90;;;;;;6280613;22;20008;-65
2022/03/11 10:53:51;;;;;;;21.70;11.95;;;17.00;47.80;;;;;;6278980;22;20062;-65
2022/03/11 10:56:33;;;;;;;22.33;12.18;;;16.70;48.90;;;;;;6280134;22;20101;-63
2022/03/11 10:59:04;;;;;;;18.63;11.60;;;16.40;48.80;;;;;;6280349;22;20079;-65
2022/03/11 11:01:41;;;;;;;20.27;12.07;;;16.70;48.80;;;;;;6280102;22;20073;-64
2022/03/11 11:04:09;;;;;;;18.40;12.02;;;16.60;49.30;;;;;;6280155;22;20377;-63
2022/03/11 11:06:36;;;;;;;19.27;12.40;;;17.00;47.90;;;;;;6280298;22;20065;-63
2022/03/11 11:09:03;;;;;;;21.52;13.93;;;17.60;48.80;;;;;;6278631;22;20000;-64
2022/03/11 11:11:30;;;;;;;23.15;13.10;;;17.80;46.60;;;;;;6280138;22;20019;-64
2022/03/11 11:13:59;;;;;;;21.42;13.85;;;17.20;47.40;;;;;;6280434;22;20003;-64
2022/03/11 11:16:30;;;;;;;24.75;12.93;;;16.80;48.30;;;;;;6279649;22;20007;-64
2022/03/11 11:19:00;;;;;;;20.25;12.95;;;15.60;49.60;;;;;;6280295;22;20004;-65
2022/03/11 11:21:26;;;;;;;20.08;12.05;;;15.70;50.30;;;;;;6280233;22;20004;-64
2022/03/11 11:23:58;;;;;;;20.85;12.27;;;16.10;50.00;;;;;;6278421;22;20007;-64
2022/03/11 11:26:26;;;;;;;23.00;13.05;;;16.10;50.10;;;;;;6280230;22;20000;-65
2022/03/11 11:28:55;;;;;;;26.33;15.85;;;16.20;49.20;;;;;;6280165;22;19999;-62
2022/03/11 11:31:23;;;;;;;21.88;13.50;;;15.60;49.60;;;;;;6279783;22;20070;-63
2022/03/11 11:33:49;;;;;;;21.10;13.07;;;15.70;50.20;;;;;;6280573;22;20018;-64
2022/03/11 11:36:32;;;;;;;23.27;13.50;;;15.90;50.10;;;;;;6279909;22;20265;-64
2022/03/11 11:39:03;;;;;;;20.20;12.10;;;16.80;49.20;;;;;;6278756;22;20110;-64
2022/03/11 11:41:30;;;;;;;17.58;12.45;;;17.30;47.90;;;;;;6279837;22;20316;-64
2022/03/11 11:43:59;;;;;;;21.23;12.02;;;17.20;48.00;;;;;;6279846;22;20004;-64
2022/03/11 11:46:26;;;;;;;22.13;13.32;;;17.00;48.10;;;;;;6279725;22;20007;-65
2022/03/11 11:48:52;;;;;;;20.83;12.57;;;17.00;48.40;;;;;;6280221;22;20000;-64
2022/03/11 11:51:44;;;;;;;19.80;13.05;;;17.20;48.00;;;;;;6280170;22;20030;-63
2022/03/11 11:54:12;;;;;;;21.55;13.43;;;17.30;48.20;;;;;;6278255;22;20027;-64
2022/03/11 11:56:46;;;;;;;22.83;13.52;;;17.20;47.40;;;;;;6280315;22;20106;-64
2022/03/11 11:59:35;;;;;;;23.90;13.32;;;17.10;48.00;;;;;;6280004;22;20007;-63
2022/03/11 12:02:23;;;;;;;22.95;12.88;;;16.70;48.20;;;;;;6279673;22;20030;-63
2022/03/11 12:04:48;;;;;;;17.83;11.57;;;16.90;48.80;;;;;;6279546;22;20028;-64
2022/03/11 12:07:15;;;;;;;21.38;12.55;;;17.40;48.00;;;;;;6279580;22;20430;-64
2022/03/11 12:09:58;;;;;;;17.92;12.13;;;17.40;47.50;;;;;;6278481;22;20031;-64
2022/03/11 12:12:29;;;;;;;16.65;11.57;;;17.40;47.10;;;;;;6279970;22;20000;-65
2022/03/11 12:14:57;;;;;;;19.23;12.20;;;17.20;47.20;;;;;;6279759;22;20004;-65
2022/03/11 12:18:08;;;;;;;17.70;11.60;;;17.40;47.50;;;;;;6279214;22;20000;-64
2022/03/11 12:20:36;;;;;;;18.95;11.10;;;17.30;47.20;;;;;;6278856;22;20325;-65
2022/03/11 12:23:05;;;;;;;24.00;12.88;;;17.10;47.60;;;;;;6279545;22;20342;-65
2022/03/11 12:25:34;;;;;;;18.92;11.98;;;16.70;47.30;;;;;;6278093;22;20003;-65
2022/03/11 12:28:16;;;;;;;22.48;12.48;;;16.80;46.90;;;;;;6278114;22;20027;-64
2022/03/11 12:30:55;;;;;;;19.13;11.50;;;16.90;48.20;;;;;;6279313;22;20006;-65
2022/03/11 12:33:23;;;;;;;17.17;11.15;;;17.30;46.30;;;;;;6279847;22;20032;-64
2022/03/11 12:35:52;;;;;;;19.40;10.77;;;17.80;45.30;;;;;;6279599;22;20004;-65